Tiempo atmosférico en la estación meteorológica de Cabo Busto, Asturias (63 m.)



Fecha
DESCASC
Temp. máxima en grados centígrados (hora)
DESCASC
Temp. mínima en grados centígrados (hora)
DESCASC
Temp. media en grados centígrados
DESCASC
Racha de viento máxima en m/sg (hora)
DESCASC
Velocidad máxima media en intervalos de 10 minutos(hora)
DESCASC
Precipitaciones diarias en mm
DESCASC
Precipitaciones de 00:00 a 06:00 en mm
DESCASC
Precipitaciones de 06:00 a 12:00 en mm
DESCASC
Precipitaciones de 12:00 a 18:00 en mm
DESCASC
Precipitaciones de 18:00 a 24:00 en mm
DESCASC
21-02-2019 17.1 (12:30) 7.8 (08:50) 12.5 11.67 (18:20) 8.33 (18:20) 0 0 0 0 0
20-02-2019 13.2 (13:30) 4.5 (07:30) 8.8 8.33 (09:40) 6.11 (08:50) 0 0 0 0 0
19-02-2019 12.3 (15:10) 3.8 (08:10) 8.1 8.89 (16:00) 6.39 (10:00) 0 0 0 0 0
18-02-2019 10.9 (00:10) 6.6 (23:59) 8.7 9.72 (13:10) 6.94 (13:00) 12.8 3 3.4 6 0.4
17-02-2019 16.2 (13:40) 8.2 (00:00) 12.2 10 (05:00) 7.5 (06:50) 0.6 0 0 0 0.6
16-02-2019 18.5 (17:00) 6.4 (00:00) 12.5 9.72 (09:20) 7.78 (22:10) 0 0 0 0 0
15-02-2019 19.8 (15:30) 9.2 (00:00) 14.5 10 (08:50) 7.78 (08:50) 0 0 0 0 0
14-02-2019 14.6 (13:20) 6.3 (00:00) 10.5 8.06 (01:10) 6.67 (01:30) 0 0 0 0 0
13-02-2019 14 (16:20) 4.9 (00:00) 9.5 8.06 (23:40) 6.39 (23:59) 0 0 0 0 0
12-02-2019 12.4 (15:00) 4 (00:00) 8.2 12.22 (16:40) 7.22 (15:50) 0 0 0 0 0
11-02-2019 14.1 (14:20) 5.4 (00:00) 9.8 7.78 (03:30) 5.28 (07:10) 0 0 0 0 0
10-02-2019 17.2 (04:20) 9.7 (00:00) 13.5 33.61 (06:00) 20.56 (07:00) 5.6 0 5.6 0 0
09-02-2019 16.8 (15:10) 13.1 (00:00) 14.9 21.67 (22:00) 15 (00:10) 0 0 0 0 0
08-02-2019 16.1 (14:40) 3.7 (00:00) 9.9 24.17 (13:20) 17.5 (13:20) 0 0 0 0 0
07-02-2019 14.5 (15:00) 6.7 (00:00) 10.6 17.78 (02:40) 11.39 (02:40) 0 0 0 0 0
06-02-2019 14.5 (12:50) 7.2 (00:00) 10.8 12.5 (22:30) 9.44 (23:30) 0 0 0 0 0
05-02-2019 16.8 (16:20) 9.2 (00:00) 13 10.56 (15:00) 7.78 (15:00) 0 0 0 0 0
04-02-2019 -- (--) -- (--) -- -- (--) -- (--) -- 0 -- 0 0
03-02-2019 12.1 (13:30) 3.3 (00:00) 7.7 8.06 (05:50) 6.11 (09:10) 0 0 0 0 0
02-02-2019 10.7 (13:00) 4.6 (00:00) 7.6 -- (--) -- (--) 3.6 1.2 2 0.4 0
01-02-2019 10.7 (00:10) 5.7 (00:00) 8.2 -- (--) -- (--) 3.4 0.8 1.6 1 0
31-01-2019 15.4 (10:10) 10 (00:00) 12.7 26.67 (18:00) 20 (20:40) 13.4 5.6 1.4 6.2 0.2
30-01-2019 13.3 (23:59) 8.3 (00:00) 10.8 19.17 (02:30) 13.89 (02:40) 4.4 0.2 0 0.6 3.6
29-01-2019 13.7 (12:20) 8.3 (00:00) 11 33.61 (12:30) 20.28 (13:00) 2 0 0 1.2 0.8
28-01-2019 -- (--) -- (--) -- -- (--) -- (--) -- -- -- 0 0
27-01-2019 -- (--) -- (--) -- -- (--) -- (--) -- 1.6 2 -- --
26-01-2019 -- (--) -- (--) -- -- (--) -- (--) -- -- -- -- 0
25-01-2019 -- (--) -- (--) -- -- (--) -- (--) -- -- -- -- --
24-01-2019 -- (--) -- (--) -- -- (--) -- (--) -- -- -- -- --

Gráficas

Temp. máximas Temp. mínimas Temp. medias Precipitaciones Rachas de viento máximas Velocidades máximas media en intervalos de 10 minutos

Datos horarios

Fecha y hora oficial Temperatura (ºC) Velocidad del viento (km/h) Dirección del viento Racha (km/h) Dirección de racha Precipitación (mm) Presión (hPa) Tendencia (hPa) Humedad (%)
2019-02-22 23:00:00 13 17 Sudeste 23 Sudeste 0 1019.4 0.6 60
2019-02-22 22:00:00 12.2 13 Sur 17 Sudeste 0 1019.5 1.1 65
2019-02-22 21:00:00 13.5 10 Sudoeste 23 Sudeste 0 1019.2 0.8 66
2019-02-22 20:00:00 14.8 7 Sudeste 18 Sudeste 0 1018.8 0.1 55
2019-02-22 19:00:00 13.8 14 Este 19 Este 0 1018.4 -0.5 60
2019-02-22 18:00:00 14.3 11 Este 21 Este 0 1018.4 -1 62
2019-02-22 17:00:00 14.7 12 Este 74 Noroeste 0 1018.7 -1 66
2019-02-22 16:00:00 16.1 12 Este 17 Este 0 1018.9 -1.4 51
2019-02-22 15:00:00 16 13 Este 55 Noroeste 0 1019.4 -1.1 60
2019-02-22 14:00:00 16.2 10 Este 13 Este 0 1019.7 -0.9 58
2019-02-22 13:00:00 16.4 8 Este 12 Este 0 1020.3 -0.3 48
2019-02-22 12:00:00 15.4 5 Este 8 Este -- 1020.5 0.2 57
2019-02-22 11:00:00 15 6 Sudeste 15 Sur -- 1020.6 0.9 52
2019-02-22 10:00:00 11.7 13 Sur 22 Sudeste 0 1020.6 0.9 58
2019-02-22 09:00:00 9.6 19 Sur 27 Sur 0 1020.3 0.6 61
2019-02-22 08:00:00 9.7 22 Sudeste 27 Sur 0 1019.7 -0.1 61
2019-02-22 07:00:00 9.6 20 Sudeste 29 Sudeste 0 1019.7 -0.3 63
2019-02-22 06:00:00 9.6 15 Sudeste 21 Sur 0 1019.7 -0.1 64
2019-02-22 05:00:00 10.2 15 Sur 21 Sudeste 0 1019.8 0 63
2019-02-22 04:00:00 10.3 14 Sur 21 Sur 0 1020 0.8 65
2019-02-22 03:00:00 12.5 21 Sur 36 Sur 0 1019.8 0.8 54
2019-02-22 02:00:00 12.4 18 Sudeste 32 Sur 0 1019.8 0.9 56
2019-02-22 01:00:00 13 25 Sur 31 Sur 0 1019.2 0.7 55
2019-02-22 00:00:00 13.5 25 Sur 32 Sur 0 1019 1.3 54
2019-02-21 23:00:00 14 21 Sudeste 28 Sur 0 1018.9 1.6 54
2019-02-21 22:00:00 14.6 20 Sur 27 Sur 0 1018.5 1.7 52
2019-02-21 21:00:00 15.8 15 Sudeste 20 Sudeste 0 1017.7 1.8 49
2019-02-21 20:00:00 15.4 14 Este 23 Este 0 1017.3 1.5 51
2019-02-21 19:00:00 14.5 18 Este 42 Este 0 1016.8 0.7 60
2019-02-21 18:00:00 15 23 Este 40 Sudeste 0 1015.9 -0.2 55
2019-02-21 17:00:00 15.2 15 Este 36 Este 0 1015.8 -0.5 65
2019-02-21 16:00:00 15.2 15 Este 27 Este 0 1016.1 -0.5 66
2019-02-21 15:00:00 14.9 15 Este 22 Este 0 1016.1 -0.6 58
2019-02-21 14:00:00 14.9 14 Este 18 Este 0 1016.3 -0.4 57
2019-02-21 13:00:00 15.6 14 Este 17 Este 0 1016.6 -0.1 48
2019-02-21 12:00:00 16.7 11 Este 23 Sudeste 0 1016.7 0.4 45
2019-02-21 11:00:00 13.3 20 Sudeste 27 Sudeste 0 1016.7 1.1 53
2019-02-21 10:00:00 10.3 20 Sudeste 25 Sur 0 1016.7 1.4 62
2019-02-21 09:00:00 8.7 20 Sudeste 33 Sudeste 0 1016.3 1.3 64
2019-02-21 08:00:00 8.2 24 Sudeste 34 Sur 0 1015.6 0.6 66
2019-02-21 07:00:00 8.7 26 Sudeste 36 Sudeste 0 1015.3 0 65
2019-02-21 06:00:00 8.5 26 Sudeste 33 Sudeste 0 1015 -0.7 67
2019-02-21 05:00:00 8.8 26 Sudeste 33 Sur 0 1015 -0.2 67
2019-02-21 04:00:00 8.9 24 Sudeste 30 Sudeste 0 1015.3 0 69
2019-02-21 03:00:00 8.1 18 Sur 28 Sudeste 0 1015.7 0.2 75
2019-02-21 02:00:00 9 23 Sudeste 32 Sudeste 0 1015.2 -0.1 74
2019-02-21 01:00:00 8.2 19 Sudeste 24 Sudeste 0 1015.3 -0.1 81
2019-02-21 00:00:00 8.4 13 Sur 23 Sudeste 0 1015.5 0.5 83
2019-02-20 23:00:00 8.8 14 Sudeste 19 Sudeste 0 1015.3 0.6 85
2019-02-20 22:00:00 8.9 13 Sudeste 20 Sudeste 0 1015.4 1 86
2019-02-20 21:00:00 9.1 12 Sudeste 14 Sudeste 0 1015 0.9 84
2019-02-20 20:00:00 10.8 8 Sudoeste 12 Sudoeste 0 1014.7 0.9 83
2019-02-20 19:00:00 11.7 3 Noroeste 18 Nordeste 0 1014.4 0.7 80
2019-02-20 18:00:00 11.7 5 Norte 21 Nordeste 0 1014.1 0.1 79
2019-02-20 17:00:00 12.2 10 Nordeste 22 Nordeste 0 1013.8 -0.8 74
2019-02-20 16:00:00 12.1 11 Nordeste 21 Nordeste 0 1013.7 -1 67
2019-02-20 15:00:00 12.3 9 Nordeste 16 Nordeste 0 1014 0 72
2019-02-20 14:00:00 12.8 3 Nordeste 11 Este 0 1014.6 0.8 71
2019-02-20 13:00:00 12.7 7 Nordeste 21 Nordeste 0 1014.7 1.1 69
2019-02-20 12:00:00 12 9 Nordeste 20 Sudeste 0 1014 0.8 64
2019-02-20 11:00:00 9.5 16 Sudeste 27 Sudeste 0 1013.8 1.1 67
2019-02-20 10:00:00 6.8 19 Sudeste 30 Sudeste 0 1013.6 1.2 72
2019-02-20 09:00:00 4.8 21 Sudeste 28 Sudeste 0 1013.2 1.1 79
2019-02-20 08:00:00 4.5 19 Sudeste 23 Sudeste 0 1012.7 0.8 81
2019-02-20 07:00:00 5 18 Sur 26 Sur 0 1012.4 0.4 82
2019-02-20 06:00:00 5.1 18 Sudeste 24 Sudeste 0 1012.1 -0.3 82
2019-02-20 05:00:00 5.2 19 Sudeste 27 Sudeste 0 1011.9 -0.7 83
2019-02-20 04:00:00 5.8 21 Sudeste 26 Sudeste 0 1012 -0.6 83
2019-02-20 03:00:00 6 18 Sudeste 23 Sudeste 0 1012.4 -0.2 84
2019-02-20 02:00:00 6.1 18 Sudeste 23 Sudeste 0 1012.6 0.2 85
2019-02-20 01:00:00 6.2 14 Sur 18 Sur 0 1012.6 0.2 84
2019-02-20 00:00:00 6.8 13 Sur 26 Sur 0 1012.6 0.3 84
2019-02-19 23:00:00 7.7 22 Sur 30 Sudeste 0 1012.4 0.2 82
2019-02-19 22:00:00 7.1 17 Sur 19 Sudeste 0 1012.4 0.7 85
2019-02-19 21:00:00 7.4 13 Sudeste 17 Sudeste 0 1012.3 0.7 85
2019-02-19 20:00:00 8.7 3 Sudeste 18 Nordeste 0 1012.2 0.2 79
2019-02-19 19:00:00 10.6 7 Nordeste 22 Nordeste 0 1011.7 -0.4 76
2019-02-19 18:00:00 11.2 11 Nordeste 29 Nordeste 0 1011.6 -1 74
2019-02-19 17:00:00 11.7 13 Nordeste 30 Nordeste 0 1012 -1.1 73
2019-02-19 16:00:00 11.8 14 Nordeste 32 Norte 0 1012.1 -1.9 72
2019-02-19 15:00:00 12 11 Nordeste 26 Nordeste 0 1012.6 -1.6 72
2019-02-19 14:00:00 11.9 11 Nordeste 22 Nordeste 0 1013.1 -1.3 70
2019-02-19 13:00:00 11.8 4 Este 14 Nordeste 0 1014 -0.6 73
2019-02-19 12:00:00 11 7 Este 18 Sudeste 0 1014.2 -0.3 73
2019-02-19 11:00:00 8.6 14 Sudeste 29 Sudeste 0 1014.4 0.3 77
2019-02-19 10:00:00 5.8 23 Sudeste 30 Sudeste 0 1014.6 0.4 82
2019-02-19 09:00:00 4.1 22 Sudeste 28 Sudeste 0 1014.5 0.4 85
2019-02-19 08:00:00 4 20 Sudeste 27 Sudeste 0 1014.1 -0.1 85
2019-02-19 07:00:00 4 21 Sudeste 26 Sudeste 0 1014.2 -0.2 86
2019-02-19 06:00:00 4.1 19 Sur 24 Sudeste 0 1014.1 -0.5 86
2019-02-19 05:00:00 4.6 19 Sudeste 24 Sudeste 0 1014.2 -0.6 86
2019-02-19 04:00:00 5.1 20 Sudeste 25 Sudeste 0 1014.4 -0.5 86
2019-02-19 03:00:00 5.4 19 Sudeste 23 Sudeste 0 1014.6 -0.3 86
2019-02-19 02:00:00 6.3 18 Sudeste 24 Sudeste 0 1014.8 0 85
2019-02-19 01:00:00 6.2 18 Sudeste 24 Sudeste 0 1014.9 0.4 85
2019-02-19 00:00:00 6.6 18 Sudeste 26 Sudeste 0 1014.9 0.8 84
2019-02-18 23:00:00 7.2 19 Sudeste 26 Sudeste 0 1014.8 0.9 85
2019-02-18 22:00:00 7.4 18 Sudeste 23 Sudeste 0 1014.5 1.1 86
2019-02-18 21:00:00 8 16 Sudeste 21 Sudeste 0 1014.1 1.3 86
2019-02-18 20:00:00 8.2 15 Sudeste 22 Sudeste 0 1013.9 0.8 87
2019-02-18 19:00:00 8.3 14 Sur 22 Sudeste 0.4 1013.4 0.6 87
2019-02-18 18:00:00 8.5 15 Sudeste 23 Sudeste 0.4 1012.8 0.2 88
2019-02-18 17:00:00 8.7 9 Sur 21 Oeste 1.2 1013.1 0.7 87
2019-02-18 16:00:00 8.8 15 Oeste 34 Oeste 0.8 1012.8 0.5 87
2019-02-18 15:00:00 9.2 23 Oeste 32 Oeste 1 1012.6 0.6 88
2019-02-18 14:00:00 9.2 24 Oeste 35 Oeste 1.6 1012.4 0.5 89
2019-02-18 13:00:00 9.5 25 Oeste 34 Oeste 1 1012.3 0.7 89
2019-02-18 12:00:00 9.7 18 Oeste 29 Oeste 1 1012 0.9 88
2019-02-18 11:00:00 9.5 15 Oeste 21 Oeste 1.6 1011.9 1.3 88
2019-02-18 10:00:00 9.7 14 Oeste 18 Oeste 0.6 1011.6 1.1 88
2019-02-18 09:00:00 9.8 6 Oeste 12 Oeste 0 1011.1 0.8 88
2019-02-18 08:00:00 9.3 2 Sudoeste 9 Oeste 0 1010.6 0.3 88
2019-02-18 07:00:00 9.2 0 Calma 12 Nordeste 0.2 1010.5 0 88
2019-02-18 06:00:00 9.2 7 Sur 13 Oeste 0.2 1010.3 -0.4 88
2019-02-18 05:00:00 9.6 5 Noroeste 13 Oeste 0.2 1010.3 -0.4 88
2019-02-18 04:00:00 9.6 6 Sudoeste 15 Oeste 0 1010.5 -0.1 88
2019-02-18 03:00:00 9.4 5 Sudoeste 26 Oeste 0.2 1010.7 0 89
2019-02-18 02:00:00 9.5 18 Oeste 27 Oeste 0.4 1010.7 -0.2 90
2019-02-18 01:00:00 10 18 Oeste 32 Oeste 2 1010.6 -0.3 89
2019-02-18 00:00:00 10.8 23 Noroeste 32 Noroeste 0.6 1010.7 -0.1 88
2019-02-17 23:00:00 11.8 4 Noroeste 10 Noroeste 0 1010.9 0 84
2019-02-17 22:00:00 11.6 6 Oeste 9 Oeste 0 1010.9 0.4 83
2019-02-17 21:00:00 11.6 2 Sudeste 9 Sudoeste 0 1010.8 0.7 83
2019-02-17 20:00:00 11.7 5 Oeste 10 Oeste 0 1010.9 0.8 83
2019-02-17 19:00:00 12.2 3 Noroeste 10 Oeste 0 1010.5 0.3 82
2019-02-17 18:00:00 13 2 Norte 9 Nordeste 0 1010.1 -0.2 78
2019-02-17 17:00:00 13.4 5 Nordeste 12 Noroeste 0 1010.1 -0.5 77
2019-02-17 16:00:00 13.6 6 Noroeste 23 Noroeste 0 1010.2 -1 76
2019-02-17 15:00:00 14.4 7 Norte 17 Nordeste 0 1010.3 -1 66
2019-02-17 14:00:00 15.9 9 Este 18 Este 0 1010.6 -0.6 53
2019-02-17 13:00:00 15.3 7 Este 12 Este 0 1011.2 0.1 54
2019-02-17 12:00:00 14 5 Nordeste 11 Sudeste 0 1011.3 0.7 60
2019-02-17 11:00:00 11.7 7 Sur 14 Sudeste 0 1011.2 1 65
2019-02-17 10:00:00 11.7 9 Sudeste 22 Sur 0 1011.1 1.2 59
2019-02-17 09:00:00 11 15 Sur 25 Sudeste 0 1010.6 0.4 56
2019-02-17 08:00:00 10.8 6 Sur 27 Sur 0 1010.2 0.1 57
2019-02-17 07:00:00 10.2 24 Sur 32 Sudeste 0 1009.9 -0.8 58
2019-02-17 06:00:00 9.7 17 Sudeste 32 Sudeste 0 1010.2 -0.5 59
2019-02-17 05:00:00 9.5 26 Sudeste 36 Sudeste 0 1010.1 -0.9 60
2019-02-17 04:00:00 8.5 18 Sudeste 23 Sudeste 0 1010.7 -0.9 66
2019-02-17 03:00:00 8.5 18 Sudeste 23 Sudeste 0 1010.7 -1.5 68
2019-02-17 02:00:00 9 18 Sudeste 23 Sudeste 0 1011 -1.4 67
2019-02-17 01:00:00 9.6 16 Sudeste 21 Sur 0 1011.6 -0.2 65
2019-02-17 00:00:00 14.3 11 Sudoeste 21 Sudoeste 0 1012.2 0.9 44
2019-02-16 23:00:00 13.8 19 Sudoeste 32 Oeste 0 1012.4 1.1 48
2019-02-16 22:00:00 12.3 27 Oeste -- -- 0 1011.8 0.9 79
2019-02-16 21:00:00 12.9 18 Sudeste 23 Sudeste 0 1011.3 0.3 54
2019-02-16 20:00:00 13.5 13 Sudeste 15 Sudeste 0 1011.3 -0.2 53
2019-02-16 19:00:00 15.3 6 Sudeste 8 Sudeste 0 1010.9 -1.2 52
2019-02-16 18:00:00 18.1 6 Sudeste 8 Sudeste 0 1011 -1.8 46
2019-02-16 17:00:00 18.3 0 Calma 4 Sudeste 0 1011.5 -2.3 45
2019-02-16 16:00:00 15.5 3 Este 7 Norte 0 1012.1 -2.6 58
2019-02-16 15:00:00 15.4 4 Oeste 8 Oeste 0 1012.8 -2.2 66
2019-02-16 14:00:00 15.2 2 Noroeste 7 Oeste 0 1013.8 -1.5 58
2019-02-16 13:00:00 13.6 6 Sudoeste 12 Oeste 0 1014.7 -0.7 58
2019-02-16 12:00:00 12.5 9 Sudoeste 16 Oeste 0 1015 -0.7 64
2019-02-16 11:00:00 13 6 Sudoeste 27 Sur 0 1015.3 -0.6 56
2019-02-16 10:00:00 10 22 Sudeste 35 Sudeste 0 1015.4 -1.1 58
2019-02-16 09:00:00 7.6 20 Sudeste 26 Sudeste 0 1015.7 -0.9 66
2019-02-16 08:00:00 7.1 18 Sudeste 24 Sudeste 0 1015.9 -0.4 69
2019-02-16 07:00:00 6.8 15 Sudeste 18 Sudeste 0 1016.5 -0.6 71
2019-02-16 06:00:00 9.2 11 Sudoeste 23 Sudeste 0 1016.6 -1.3 74
2019-02-16 05:00:00 8 19 Sudeste 24 Sur 0 1016.3 -2.4 65
2019-02-16 04:00:00 8 21 Sudeste 28 Sudeste 0 1017.1 -1.9 65
2019-02-16 03:00:00 8.6 17 Sudeste 24 Sudeste 0 1017.9 -1.1 63
2019-02-16 02:00:00 8.1 14 Sur 19 Sur 0 1018.7 0 66
2019-02-16 01:00:00 8.8 10 Sur 16 Sur 0 1019 0.7 64
2019-02-16 00:00:00 11.5 12 Sudoeste 18 Sur 0 1019 1.1 55
2019-02-15 23:00:00 10 16 Sudeste 19 Sur 0 1018.7 0.9 62
2019-02-15 22:00:00 13 10 Sudeste 16 Sudeste 0 1018.3 0.7 48
2019-02-15 21:00:00 14.1 12 Sudeste 18 Este 0 1017.9 0.5 42
2019-02-15 20:00:00 14.2 13 Este 17 Este 0 1017.8 0.3 39
2019-02-15 19:00:00 13.8 12 Este 14 Este 0 1017.6 0.2 43
2019-02-15 18:00:00 15.8 6 Nordeste 8 Nordeste 0 1017.4 -0.3 37
2019-02-15 17:00:00 17.4 6 Oeste 9 Oeste 0 1017.5 -0.2 32
2019-02-15 16:00:00 18.8 4 Oeste 9 Oeste 0 1017.4 -0.5 37
2019-02-15 15:00:00 19.2 5 Oeste 9 Oeste 0 1017.7 -0.3 34
2019-02-15 14:00:00 18.8 5 Oeste 10 Noroeste 0 1017.7 0.1 31
2019-02-15 13:00:00 18.2 3 Noroeste 6 Norte 0 1017.9 1 30
2019-02-15 12:00:00 16.4 3 Sudoeste 14 Sudoeste 0 1018 1.8 38
2019-02-15 11:00:00 14.9 9 Sudoeste 24 Sur 0 1017.6 1.7 39
2019-02-15 10:00:00 11.4 21 Sur 36 Sudeste 0 1016.9 1 50
2019-02-15 09:00:00 11.3 23 Sudeste 36 Sudeste 0 1016.2 0.7 46
2019-02-15 08:00:00 10.4 24 Sudeste 33 Sudeste 0 1015.9 0.4 51
2019-02-15 07:00:00 10 23 Sudeste 32 Sur 0 1015.9 0.2 54
2019-02-15 06:00:00 9.9 23 Sudeste 29 Sudeste 0 1015.5 -0.1 56
2019-02-15 05:00:00 9.7 21 Sudeste 27 Sudeste 0 1015.5 -0.4 58
2019-02-15 04:00:00 10.4 15 Sur 27 Sudeste 0 1015.7 -0.1 56
2019-02-15 03:00:00 10.3 21 Sudeste 28 Sudeste 0 1015.6 -0.4 59
2019-02-15 02:00:00 10.2 19 Sudeste 23 Sudeste 0 1015.9 0.3 62
2019-02-15 01:00:00 10.1 18 Sudeste 22 Sudeste 0 1015.8 0.3 64
2019-02-15 00:00:00 10.9 8 Sudoeste 14 Sudoeste 0 1016 0.6 71
2019-02-14 23:00:00 11.9 11 Sudoeste 20 Oeste 0 1015.6 0.2 68
2019-02-14 22:00:00 9.8 8 Sur 17 Sur 0 1015.5 0.3 73
2019-02-14 21:00:00 11.8 16 Este 24 Este 0 1015.4 0.1 80
2019-02-14 20:00:00 12.1 10 Este 16 Este 0 1015.4 -0.3 80
2019-02-14 19:00:00 12.2 9 Este 14 Este 0 1015.2 -0.7 81
2019-02-14 18:00:00 13.2 8 Este 12 Este 0 1015.3 -1.3 78
2019-02-14 17:00:00 13.9 6 Este 11 Este 0 1015.7 -1.6 71
2019-02-14 16:00:00 13.7 9 Este 13 Este 0 1015.9 -2.2 70
2019-02-14 15:00:00 14 5 Nordeste 12 Este 0 1016.6 -1.8 69
2019-02-14 14:00:00 13.6 5 Este 8 Este 0 1017.3 -1.2 64
2019-02-14 13:00:00 14.2 3 Oeste 9 Oeste 0 1018.1 -0.5 65
2019-02-14 12:00:00 13.5 6 Oeste 10 Sur 0 1018.4 -0.1 63
2019-02-14 11:00:00 12.3 10 Sudeste 23 Sur 0 1018.5 0 53
2019-02-14 10:00:00 9.2 18 Sudeste 24 Sudeste 0 1018.6 -0.1 60
2019-02-14 09:00:00 7.1 17 Sudeste 23 Sudeste 0 1018.5 -0.3 68
2019-02-14 08:00:00 6.9 18 Sudeste 23 Sudeste 0 1018.5 -0.1 71
2019-02-14 07:00:00 6.5 18 Sur 23 Sur 0 1018.7 -0.3 74
2019-02-14 06:00:00 6.7 15 Sudeste 23 Sur 0 1018.8 -0.5 75
2019-02-14 05:00:00 7.1 18 Sur 23 Sur 0 1018.6 -0.9 73
2019-02-14 04:00:00 7.1 16 Sur 22 Sur 0 1019 -0.7 72
2019-02-14 03:00:00 7.8 17 Sur 27 Sudeste 0 1019.3 -0.8 70
2019-02-14 02:00:00 8.4 22 Sudeste 29 Sudeste 0 1019.5 -1.2 68
2019-02-14 01:00:00 8.7 21 Sudeste 28 Sudeste 0 1019.7 -0.9 66
2019-02-14 00:00:00 9 23 Sudeste 29 Sudeste 0 1020.1 -0.6 66
2019-02-13 23:00:00 8 19 Sudeste 22 Sudeste 0 1020.7 0 73
2019-02-13 22:00:00 9 17 Sudeste 21 Sudeste 0 1020.6 0.2 69
2019-02-13 21:00:00 9 13 Sudeste 15 Sudeste 0 1020.7 0.7 71
2019-02-13 20:00:00 9.9 5 Sudoeste 7 Sur 0 1020.7 0.5 75
2019-02-13 19:00:00 11.9 2 Nordeste 15 Este 0 1020.4 0.1 71
2019-02-13 18:00:00 12.7 12 Este 17 Este 0 1020 -0.4 64
2019-02-13 17:00:00 13.5 10 Este 16 Este 0 1020.2 -0.9 63
2019-02-13 16:00:00 13.7 9 Este 14 Este 0 1020.3 -1.3 63
2019-02-13 15:00:00 13.7 7 Este 11 Este 0 1020.4 -1 67
2019-02-13 14:00:00 13 3 Nordeste 13 Este 0 1021.1 -0.1 67
2019-02-13 13:00:00 12.8 6 Nordeste 13 Nordeste 0 1021.6 0.1 67
2019-02-13 12:00:00 12.7 8 Nordeste 18 Sur 0 1021.4 0 61
2019-02-13 11:00:00 11.1 14 Sudeste 19 Sudeste 0 1021.2 0.2 60
2019-02-13 10:00:00 8.4 15 Sudeste 23 Sudeste 0 1021.5 0.6 64
2019-02-13 09:00:00 5.6 18 Sudeste 23 Sudeste 0 1021.4 0.6 72
2019-02-13 08:00:00 5.6 19 Sudeste 23 Sudeste 0 1021 0 72
2019-02-13 07:00:00 5.2 17 Sudeste 23 Sudeste 0 1020.9 -0.4 73
2019-02-13 06:00:00 5.4 19 Sudeste 23 Sudeste 0 1020.8 -0.8 73
2019-02-13 05:00:00 5 17 Sudeste 22 Sur 0 1021 -0.9 75
2019-02-13 04:00:00 5.3 17 Sudeste 21 Sudeste 0 1021.3 -0.7 75
2019-02-13 03:00:00 5 17 Sudeste 21 Sur 0 1021.6 -0.6 77
2019-02-13 02:00:00 5.7 15 Sudeste 21 Sudeste 0 1021.9 -0.5 75
2019-02-13 01:00:00 5.4 14 Sur 18 Sur 0 1022 -0.4 78
2019-02-13 00:00:00 5.8 14 Sur 19 Sur 0 1022.2 -0.2 79
2019-02-12 23:00:00 6.5 11 Sudeste 17 Sudeste 0 1022.4 -0.1 75
2019-02-12 22:00:00 8.5 10 Este 18 Sudeste 0 1022.4 0.5 77
2019-02-12 21:00:00 7.6 9 Sur 15 Nordeste 0 1022.4 0.8 77
2019-02-12 20:00:00 10.5 9 Este 31 Este 0 1022.5 0.7 73
2019-02-12 19:00:00 11.2 19 Este 38 Nordeste 0 1021.9 0.1 73
2019-02-12 18:00:00 11.7 22 Este 40 Norte 0 1021.6 -0.8 71
2019-02-12 17:00:00 12 23 Nordeste 44 Nordeste 0 1021.8 -1.1 68
2019-02-12 16:00:00 12.2 24 Nordeste 43 Nordeste 0 1021.8 -1.8 67
2019-02-12 15:00:00 12.4 21 Nordeste 41 Nordeste 0 1022.4 -1.6 68
2019-02-12 14:00:00 12 18 Nordeste 35 Nordeste 0 1022.9 -1.1 65
2019-02-12 13:00:00 11.3 21 Nordeste 33 Nordeste 0 1023.6 -0.9 66
2019-02-12 12:00:00 11.5 12 Nordeste -- -- 0 1024 -0.6 61
2019-02-12 11:00:00 9.3 13 Sudeste 22 Sudeste 0 1024 -0.7 64
2019-02-12 10:00:00 7 18 Sudeste 27 Sudeste 0 1024.5 -0.1 70
2019-02-12 09:00:00 4.8 21 Sudeste 28 Sudeste 0 1024.6 0.4 79
2019-02-12 08:00:00 4.1 17 Sudeste 22 Sudeste 0 1024.7 0.5 82
2019-02-12 07:00:00 4.3 17 Sur 23 Sudeste 0 1024.6 -0.1 81
2019-02-12 06:00:00 5.3 17 Sudeste 30 Sudeste 0 1024.2 -0.2 79
2019-02-12 05:00:00 5.6 22 Sudeste 29 Sudeste 0 1024.2 -0.3 80
2019-02-12 04:00:00 5.4 17 Sudeste 25 Sudeste 0 1024.7 0.2 81
2019-02-12 03:00:00 6 17 Sudeste 23 Sudeste 0 1024.4 -0.5 80
2019-02-12 02:00:00 6.8 16 Sudeste 22 Sudeste 0 1024.5 -0.7 78
2019-02-12 01:00:00 7 16 Sudeste 21 Sudeste 0 1024.5 -0.9 77
2019-02-12 00:00:00 8.2 13 Sudeste 22 Sudeste 0 1024.9 -0.8 74
2019-02-11 23:00:00 8.3 13 Sudeste 18 Sudeste 0 1025.2 -0.6 75
2019-02-11 22:00:00 8.3 9 Sudeste 19 Sudeste 0 1025.4 0.2 75
2019-02-11 21:00:00 9.3 11 Sudeste 21 Este 0 1025.7 1 73
2019-02-11 20:00:00 10.3 10 Este 26 Norte 0 1025.8 1.4 74
2019-02-11 19:00:00 10.9 8 Norte 24 Nordeste 0 1025.2 0.9 72
2019-02-11 18:00:00 12.1 6 Noroeste 19 Nordeste 0 1024.7 0 68
2019-02-11 17:00:00 13.1 5 Oeste -- -- 0 1024.4 -0.6 65
2019-02-11 16:00:00 13.1 6 Noroeste 23 Nordeste 0 1024.3 -1.2 64
2019-02-11 15:00:00 13.5 6 Norte 19 Norte 0 1024.7 -0.5 60
2019-02-11 14:00:00 13.9 4 Sudeste 10 Norte 0 1025 0.4 59
2019-02-11 13:00:00 13.3 4 Nordeste 11 Sudeste 0 1025.5 1.2 60
2019-02-11 12:00:00 11.7 9 Sudeste 17 Sur 0 1025.2 1.7 64
2019-02-11 11:00:00 9.7 13 Sur 23 Sur 0 1024.6 1.5 68
2019-02-11 10:00:00 7 18 Sur 22 Sur 0 1024.3 1.5 74
2019-02-11 09:00:00 5.5 18 Sur 22 Sur 0 1023.5 1.3 78
2019-02-11 08:00:00 5.5 18 Sur 23 Sur 0 1023.1 1.1 78
2019-02-11 07:00:00 5.9 18 Sur 22 Sur 0 1022.8 1 77
2019-02-11 06:00:00 7.1 16 Sur 21 Sur 0 1022.2 0.9 74
2019-02-11 05:00:00 7.6 13 Sudoeste 22 Sudoeste 0 1022 0.8 73
2019-02-11 04:00:00 8.9 11 Sudoeste 28 Sur 0 1021.8 0.9 67
2019-02-11 03:00:00 7.6 16 Sur 24 Oeste 0 1021.3 1.1 73
2019-02-11 02:00:00 9.5 12 Sudoeste 23 Sudoeste 0 1021.2 1.2 67
2019-02-11 01:00:00 8.8 12 Sudoeste 24 Sudoeste 0 1020.9 1.5 67
2019-02-11 00:00:00 9.7 19 Oeste 32 Oeste 0 1020.2 1.4 66
2019-02-10 23:00:00 9.8 15 Sudoeste 24 Oeste 0 1020 1.6 64
2019-02-10 22:00:00 9.9 16 Oeste 24 Oeste 0 1019.4 2.1 66
2019-02-10 21:00:00 10.1 19 Oeste 36 Oeste 0 1018.8 2.3 65
2019-02-10 20:00:00 10.5 18 Oeste 44 Oeste 0 1018.4 2.4 67
2019-02-10 19:00:00 10.5 23 Oeste 48 Oeste 0 1017.3 2 64
2019-02-10 18:00:00 10.7 28 Oeste 44 Oeste 0 1016.5 2 65
2019-02-10 17:00:00 10.8 20 Oeste 43 Noroeste 0 1016 2.5 70
2019-02-10 16:00:00 10.7 17 Oeste 49 Oeste 0 1015.3 2 75
2019-02-10 15:00:00 11.4 24 Oeste 52 Oeste 0 1014.5 2.3 69
2019-02-10 14:00:00 11.6 39 Oeste 62 Oeste 0 1013.5 2.2 70
2019-02-10 13:00:00 12.2 32 Oeste 57 Oeste 0 1013.3 3.7 70
2019-02-10 12:00:00 11.3 31 Oeste 57 Oeste 0 1012.2 4.3 74
2019-02-10 11:00:00 10.9 32 Oeste 60 Oeste 0 1011.3 5.5 79
2019-02-10 10:00:00 11.3 40 Oeste 65 Oeste 0.2 1009.6 7 76
2019-02-10 09:00:00 10.2 50 Oeste 73 Oeste 1.6 1007.9 9 88
2019-02-10 08:00:00 10.5 42 Oeste 84 Oeste 3.4 1005.8 7.7 87
2019-02-10 07:00:00 12 74 Oeste 121 Oeste 0.4 1002.6 2.3 82
2019-02-10 06:00:00 16.5 64 Sudoeste 121 Sudoeste 0 998.9 -1.9 51
2019-02-10 05:00:00 16.8 64 Sudoeste -- -- 0 998.1 -4.3 48
2019-02-10 04:00:00 16.9 46 Sudoeste 86 Oeste 0 1000.3 -3.3 45
2019-02-10 03:00:00 16.1 51 Oeste 80 Oeste 0 1000.8 -3.1 51
2019-02-10 02:00:00 16.2 43 Oeste 75 Oeste 0 1002.4 -1.9 49
2019-02-10 01:00:00 16.3 34 Sudoeste 64 Oeste 0 1003.6 -0.7 48
2019-02-10 00:00:00 16.1 32 Sudoeste 67 Oeste 0 1003.9 -1.8 48
2019-02-09 23:00:00 15.8 34 Sudoeste 75 Oeste 0 1004.3 -1.4 49
2019-02-09 22:00:00 15.9 51 Sudoeste 78 Oeste 0 1004.3 -1.9 49
2019-02-09 21:00:00 16.1 31 Sudoeste 55 Oeste 0 1005.7 -1 45
2019-02-09 20:00:00 16.2 30 Sudoeste 54 Oeste 0 1005.7 -1.7 42
2019-02-09 19:00:00 16 33 Sudoeste 62 Oeste 0 1006.2 -1.3 41
2019-02-09 18:00:00 15.8 34 Oeste 46 Oeste 0 1006.7 -1.4 49
2019-02-09 17:00:00 16.4 24 Oeste 57 Oeste 0 1007.4 -1.4 48
2019-02-09 16:00:00 16.4 36 Oeste 52 Oeste 0 1007.5 -2 49
2019-02-09 15:00:00 16.7 24 Oeste 46 Oeste 0 1008.1 -1.9 47
2019-02-09 14:00:00 14.1 9 Este 17 Este 0 1008.8 -1.4 68
2019-02-09 13:00:00 14.5 8 Nordeste 14 Nordeste 0 1009.5 -0.8 70
2019-02-09 12:00:00 14.9 4 Nordeste 14 Sur 0 1010 -0.5 64
2019-02-09 11:00:00 15.1 6 Sudoeste 31 Oeste 0 1010.2 -0.2 55
2019-02-09 10:00:00 14.5 13 Sudoeste 30 Sur 0 1010.3 -0.2 52
2019-02-09 09:00:00 13.9 14 Sur 28 Sur 0 1010.5 0 55
2019-02-09 08:00:00 13.5 4 Sudoeste 14 Sudeste 0 1010.4 0 61
2019-02-09 07:00:00 13.9 5 Nordeste 14 Oeste 0 1010.5 0 57
2019-02-09 06:00:00 13.8 8 Sudoeste 30 Oeste 0 1010.5 0.2 56
2019-02-09 05:00:00 13.7 17 Oeste 51 Oeste 0 1010.4 0.6 61
2019-02-09 04:00:00 14.5 41 Oeste 57 Oeste 0 1010.5 0.7 54
2019-02-09 03:00:00 14.6 33 Oeste 63 Oeste 0 1010.3 1.1 54
2019-02-09 02:00:00 14.7 39 Oeste 60 Oeste 0 1009.8 0.3 53
2019-02-09 01:00:00 14.7 37 Oeste 75 Oeste 0 1009.8 0.6 52
2019-02-09 00:00:00 15 42 Oeste 75 Oeste 0 1009.2 0 49
2019-02-08 23:00:00 14.5 39 Oeste 61 Oeste 0 1009.5 0.6 55
2019-02-08 22:00:00 14.4 44 Oeste 62 Oeste 0 1009.2 0.6 57
2019-02-08 21:00:00 14.1 44 Oeste 65 Oeste 0 1009.2 0.8 61
2019-02-08 20:00:00 14.4 41 Oeste 64 Sudoeste 0 1008.9 1.2 59
2019-02-08 19:00:00 14.7 52 Oeste 76 Oeste 0 1008.6 0.8 57
2019-02-08 18:00:00 14.9 46 Oeste 82 Oeste 0 1008.4 0.4 56
2019-02-08 17:00:00 15.4 50 Oeste 73 Sudoeste 0 1007.7 -0.9 52
2019-02-08 16:00:00 15.8 49 Oeste 68 Oeste 0 1007.8 -1.5 51
2019-02-08 15:00:00 15.8 37 Oeste 59 Oeste 0 1008 -1.8 47
2019-02-08 14:00:00 15.2 34 Sudoeste 87 Oeste 0 1008.6 -3.4 48
2019-02-08 13:00:00 14 48 Oeste 80 Oeste 0 1009.3 -2.9 49
2019-02-08 12:00:00 13.5 38 Sudoeste 75 Oeste 0 1009.8 -2.5 52
2019-02-08 11:00:00 11.3 16 Sudoeste 32 Sudoeste 0 1012 0 63
2019-02-08 10:00:00 8.3 21 Oeste 29 Oeste 0 1012.2 0 78
2019-02-08 09:00:00 3.8 15 Sur 24 Sur 0 1012.3 -0.2 85
2019-02-08 08:00:00 4.6 19 Sudeste 23 Sudeste 0 1012 -0.7 85
2019-02-08 07:00:00 4.5 16 Sur 22 Sur 0 1012.2 -1.4 84
2019-02-08 06:00:00 4.8 13 Sur 19 Sur 0 1012.5 -1.7 86
2019-02-08 05:00:00 4.5 14 Sur 21 Sur 0 1012.7 -1.6 85
2019-02-08 04:00:00 5.1 14 Sur 21 Sur 0 1013.6 -1.3 85
2019-02-08 03:00:00 5.6 6 Sur 23 Sudeste 0 1014.2 -1.2 84
2019-02-08 02:00:00 5.7 17 Sudeste 25 Sur 0 1014.3 -1.3 84
2019-02-08 01:00:00 6.2 14 Sur 24 Sudeste 0 1014.9 -0.9 84
2019-02-08 00:00:00 6.7 17 Sudeste 22 Sudeste 0 1015.4 -0.8 82
2019-02-07 23:00:00 6.9 17 Sudeste 19 Sudeste 0 1015.6 -0.8 82
2019-02-07 22:00:00 7.8 16 Sudeste 20 Sudeste 0 1015.8 -0.6 79
2019-02-07 21:00:00 8.3 14 Sudeste 18 Sudeste 0 1016.2 -0.3 79
2019-02-07 20:00:00 8.6 13 Sudeste 16 Sudeste 0 1016.4 -0.1 78
2019-02-07 19:00:00 10.6 4 Sur 12 Nordeste 0 1016.4 -0.2 70
2019-02-07 18:00:00 12.2 3 Sur 21 Oeste 0 1016.5 -0.3 65
2019-02-07 17:00:00 13.4 12 Oeste 27 Oeste 0 1016.5 -0.9 67
2019-02-07 16:00:00 13.1 15 Oeste 40 Oeste 0 1016.6 -1.4 69
2019-02-07 15:00:00 14.2 21 Oeste 30 Oeste 0 1016.8 -1.2 60
2019-02-07 14:00:00 12.5 19 Oeste 41 Oeste 0 1017.4 -0.5 62
2019-02-07 13:00:00 12.8 16 Oeste 40 Oeste 0 1018 0.3 62
2019-02-07 12:00:00 11.6 22 Oeste 35 Oeste 0 1018 0.9 68
2019-02-07 11:00:00 11.1 17 Oeste 31 Sudoeste 0 1017.9 1.5 70
2019-02-07 10:00:00 10.4 23 Oeste 30 Oeste 0 1017.7 2.1 74
2019-02-07 09:00:00 9.7 18 Sudoeste 39 Oeste 0 1017.1 2.2 80
2019-02-07 08:00:00 9.5 27 Oeste 57 Oeste 0 1016.4 1.7 84
2019-02-07 07:00:00 10.1 36 Oeste 59 Oeste 0 1015.6 0.8 85
2019-02-07 06:00:00 12.2 33 Oeste 44 Oeste 0 1014.9 0.2 68
2019-02-07 05:00:00 12.4 28 Oeste 46 Oeste 0 1014.7 -0.1 71
2019-02-07 04:00:00 12.6 28 Oeste 38 Oeste 0 1014.8 0.2 69
2019-02-07 03:00:00 11.9 33 Oeste 64 Oeste 0 1014.7 0.5 76
2019-02-07 02:00:00 12 27 Oeste 45 Oeste 0 1014.8 1 80
2019-02-07 01:00:00 12.8 23 Oeste 47 Oeste 0 1014.6 0.8 73
2019-02-07 00:00:00 13.7 26 Oeste 45 Oeste 0 1014.2 0.3 60
2019-02-06 23:00:00 14.2 31 Oeste 45 Oeste 0 1013.8 -0.4 56
2019-02-06 22:00:00 12.8 24 Oeste 30 Oeste 0 1013.8 -0.3 64
2019-02-06 21:00:00 12.8 12 Sudoeste 17 Sudoeste 0 1013.9 0.1 71
2019-02-06 20:00:00 11.4 6 Sudeste 12 Sur 0 1014.2 0.6 82
2019-02-06 19:00:00 11.7 0 Calma 10 Sudeste 0 1014.1 -0.2 80
2019-02-06 18:00:00 12.3 4 Este 13 Nordeste 0 1013.8 -0.9 78
2019-02-06 17:00:00 12.7 8 Este 13 Este 0 1013.6 -1.8 76
2019-02-06 16:00:00 13.1 5 Este 8 Nordeste 0 1014.3 -1.9 75
2019-02-06 15:00:00 13.7 4 Norte 11 Norte 0 1014.7 -2.3 72
2019-02-06 14:00:00 13.9 4 Norte 7 Norte 0 1015.4 -1.9 71
2019-02-06 13:00:00 14.3 4 Sudoeste 12 Oeste 0 1016.2 -1 68
2019-02-06 12:00:00 13 6 Sudoeste 15 Oeste 0 1017 -0.6 74
2019-02-06 11:00:00 11.1 4 Sur 22 Sudeste 0 1017.3 -0.2 76
2019-02-06 10:00:00 9 19 Sudeste 25 Sudeste 0 1017.2 -0.3 77
2019-02-06 09:00:00 7.2 17 Sudeste 23 Sudeste 0 1017.6 -0.2 82
2019-02-06 08:00:00 7.5 18 Sur 22 Sur 0 1017.5 -0.9 81
2019-02-06 07:00:00 7.8 18 Sudeste 26 Sudeste 0 1017.5 -1.3 81
2019-02-06 06:00:00 8.2 21 Sudeste 28 Sudeste 0 1017.8 -1.7 80
2019-02-06 05:00:00 8.7 19 Sudeste 26 Sudeste 0 1018.4 -1.4 79
2019-02-06 04:00:00 8.4 19 Sudeste 25 Sudeste 0 1018.8 -1.3 82
2019-02-06 03:00:00 9.1 12 Sur 22 Sur 0 1019.5 -0.7 79
2019-02-06 02:00:00 9.1 18 Sur 21 Sudeste 0 1019.8 -0.5 80
2019-02-06 01:00:00 9.3 17 Sur 21 Sur 0 1020.1 -0.1 81
2019-02-06 00:00:00 9.3 17 Sur 21 Sur 0 1020.2 0 79
2019-02-05 23:00:00 10.5 16 Sur 22 Sudeste 0 1020.3 -0.1 75
2019-02-05 22:00:00 11 18 Sudeste 22 Sudeste 0 1020.2 0.4 74
2019-02-05 21:00:00 11.3 14 Sudeste 21 Sudeste 0 1020.2 0.3 73
2019-02-05 20:00:00 11.7 13 Sudeste 16 Sudeste 0 1020.4 0.6 71
2019-02-05 19:00:00 13 9 Sudeste 12 Sudeste 0 1019.8 -0.4 65
2019-02-05 18:00:00 15.6 7 Noroeste 26 Noroeste 0 1019.9 -0.6 56
2019-02-05 17:00:00 15.4 17 Oeste 25 Oeste 0 1019.8 -1.2 61
2019-02-05 16:00:00 16.5 18 Oeste 34 Oeste 0 1020.2 -1.5 55
2019-02-05 15:00:00 15.4 28 Oeste 38 Oeste 0 1020.5 -1.6 54
2019-02-05 14:00:00 15.7 14 Sudoeste 35 Oeste 0 1021 -1 54
2019-02-05 13:00:00 15.3 19 Sudoeste 32 Sudoeste 0 1021.7 0.1 54
2019-02-05 12:00:00 15.4 7 Sudoeste 15 Sudoeste 0 1022.1 1.1 54
2019-02-05 11:00:00 13.7 4 Sudeste 19 Sudeste 0 1022 1.6 64
2019-02-05 10:00:00 11 13 Sudeste 16 Sudeste 0 1021.6 1.4 70
2019-02-05 09:00:00 9.3 12 Sudeste 16 Sudeste 0 1021 1.1 74
2019-02-05 08:00:00 10 11 Sudeste 15 Sudeste 0 1020.4 0.3 71
2019-02-05 07:00:00 10.1 5 Sudeste 8 Sudeste 0 1020.2 -0.1 69
2019-02-05 06:00:00 10.8 6 Este 8 Nordeste 0 1019.9 -0.5 69
2019-02-05 05:00:00 10.8 3 Nordeste 7 Oeste 0 1020.1 -0.4 70
2019-02-05 04:00:00 10.7 3 Sur 12 Oeste 0 1020.3 -0.2 67
2019-02-05 03:00:00 12.4 10 Sudoeste 15 Sudoeste 0 1020.4 -0.1 64
2019-02-05 02:00:00 12.1 11 Oeste 32 Oeste 0 1020.5 0.3 67
2019-02-05 01:00:00 13 24 Oeste 36 Oeste 0 1020.5 0.6 65
2019-02-05 00:00:00 13.1 17 Oeste 37 Oeste 0 1020.5 1 64
2019-02-04 23:00:00 13.3 24 Oeste 47 Oeste 0 1020.2 0.9 65
2019-02-04 22:00:00 13.3 28 Oeste 38 Oeste 0 1019.9 0.7 63
2019-02-04 21:00:00 13.4 31 Oeste 41 Oeste 0 1019.5 0.6 63
2019-02-04 20:00:00 13.7 28 Oeste 39 Sudoeste 0 1019.3 0.9 60
2019-02-04 19:00:00 13.2 20 Oeste 34 Oeste 0 1019.2 0.9 62
2019-02-04 18:00:00 14 23 Oeste 39 Oeste 0 1018.9 0.5 58
2019-02-04 17:00:00 14.4 28 Oeste 44 Oeste 0 1018.4 -0.6 55
2019-02-04 16:00:00 14.5 32 Oeste 50 Oeste 0 1018.3 -1.1 53
2019-02-04 15:00:00 14.6 30 Oeste 51 Oeste 0 1018.4 -1 50
2019-02-04 14:00:00 13.2 20 Oeste 33 Oeste 0 1019 -0.6 59
2019-02-04 13:00:00 13.7 15 Oeste 32 Oeste 0 1019.4 0 53
2019-02-04 12:00:00 13.2 14 Oeste 32 Sudoeste 0 1019.4 -- 48
2019-02-04 11:00:00 12.1 19 Oeste -- -- -- 1019.6 1 51
2019-02-04 10:00:00 11.1 -- -- -- -- -- 1019.4 0.4 46
2019-02-04 09:00:00 -- -- -- -- -- -- -- -- --
2019-02-04 08:00:00 8.1 10 Sur 14 Sur 0 1018.6 -1.3 49
2019-02-04 07:00:00 6.7 9 Sudeste 16 Sudeste 0 1019 -1.7 51
2019-02-04 06:00:00 5.5 14 Sudeste 23 Sudeste 0 1019.3 -1.7 58
2019-02-04 05:00:00 4.7 12 Sudeste 27 Sur 0 1019.9 -0.6 64
2019-02-04 04:00:00 4.6 16 Sudeste 22 Sudeste 0 1020.7 -0.1 67
2019-02-04 03:00:00 4.7 17 Sur 22 Sudeste 0 1021 -0.4 69
2019-02-04 02:00:00 5.3 18 Sudeste 25 Sudeste 0 1020.5 -0.8 66
2019-02-04 01:00:00 6.2 17 Sudeste 28 Sudeste 0 1020.8 -1.2 62
2019-02-04 00:00:00 6.2 16 Sur 24 Sudeste 0 1021.4 -1 68
2019-02-03 23:00:00 6.3 21 Sudeste 29 Sudeste 0 1021.3 -0.9 69
2019-02-03 22:00:00 6.1 21 Sudeste 26 Sudeste 0 1022 0.3 73
2019-02-03 21:00:00 6.5 17 Sudeste 21 Sudeste 0 1022.4 1 73
2019-02-03 20:00:00 6.9 12 Sudeste 15 Sudeste 0 1022.2 1 73
2019-02-03 19:00:00 7.8 6 Sudeste 10 Sudeste 0 1021.7 0.1 68
2019-02-03 18:00:00 10 5 Noroeste 10 Oeste 0 1021.4 -0.5 59
2019-02-03 17:00:00 11.3 3 Nordeste 10 Nordeste 0 1021.2 -1.4 58
2019-02-03 16:00:00 11.4 4 Nordeste 19 Nordeste 0 1021.6 -1.5 59
2019-02-03 15:00:00 11 9 Nordeste 19 Nordeste 0 1021.9 -1.4 57
2019-02-03 14:00:00 11.3 5 Nordeste 12 Este 0 1022.6 -0.2 55
2019-02-03 13:00:00 10.9 6 Sur 17 Sudeste 0 1023.1 1.1 59
2019-02-03 12:00:00 9.3 12 Sudeste 20 Sur 0 1023.3 1.8 67
2019-02-03 11:00:00 6.5 17 Sudeste 28 Sudeste 0 1022.8 1.9 73
2019-02-03 10:00:00 4.5 22 Sudeste 28 Sudeste 0 1022 1.3 77
2019-02-03 09:00:00 3.4 22 Sudeste 28 Sudeste 0 1021.5 1.4 80
2019-02-03 08:00:00 3.6 20 Sudeste 27 Sur 0 1020.9 1.4 81
2019-02-03 07:00:00 4.1 21 Sudeste 27 Sur 0 1020.7 1.5 80
2019-02-03 06:00:00 4.4 20 Sur 29 Sur 0 1020.1 1.1 79
2019-02-03 05:00:00 4 19 Sudeste 24 Sudeste 0 1019.5 0.5 82
2019-02-03 04:00:00 4 17 Sudeste 22 Sur 0 1019.2 1.1 82
2019-02-03 03:00:00 4.9 17 Sudeste 24 Sudeste 0 1019 1.6 77
2019-02-03 02:00:00 6 7 Sudeste 20 Sudeste 0 1019 2.1 73
2019-02-03 01:00:00 8.7 15 Noroeste 28 Noroeste 0 1018.1 2.2 58
2019-02-03 00:00:00 9.2 15 Noroeste 41 Norte 0 1017.4 2.1 55
2019-02-02 23:00:00 9.4 22 Noroeste 36 Noroeste 0 1016.9 2.3 52
2019-02-02 22:00:00 9.2 25 Noroeste 39 Noroeste 0 1015.9 2.6 55
2019-02-02 21:00:00 8.8 22 Noroeste 37 Oeste 0 1015.3 2.6 62
2019-02-02 20:00:00 8.8 30 Noroeste 49 Oeste 0 1014.6 3.7 67
2019-02-02 19:00:00 8.7 40 Noroeste 54 Oeste 0 1013.3 2.6 66
2019-02-02 18:00:00 7.7 27 Oeste -- -- 0.4 1012.7 2.2 79
2019-02-02 17:00:00 9.4 47 Oeste 69 Oeste 0 1010.9 0.6 67
2019-02-02 16:00:00 8.4 45 Noroeste -- -- 0 1010.7 0.6 71
2019-02-02 15:00:00 9.8 32 Oeste -- -- 0 1010.5 1.1 72
2019-02-02 14:00:00 9.9 30 Oeste -- -- 0 1010.3 1.6 58
2019-02-02 13:00:00 10.6 -- -- -- -- 0 1010.1 2.3 62
2019-02-02 12:00:00 9 -- -- -- -- 0 1009.4 3.4 71
2019-02-02 11:00:00 7.3 -- -- -- -- 0.8 1008.7 4.6 80
2019-02-02 10:00:00 7.7 23 Noroeste -- -- 1 1007.8 4.3 76
2019-02-02 09:00:00 7.7 24 Noroeste -- -- 0 1006 3.9 76
2019-02-02 08:00:00 7.7 50 Noroeste 69 Noroeste 0.2 1004.1 3.7 68
2019-02-02 07:00:00 6.5 52 Norte 84 Norte 0 1003.5 3.2 77
2019-02-02 06:00:00 7.8 52 Noroeste -- -- 0 1002.1 3.3 77
2019-02-02 05:00:00 7.6 -- -- -- -- 1 1000.4 3.7 82
2019-02-02 04:00:00 7 -- -- -- -- 0 1000.3 5.4 68
2019-02-02 03:00:00 7.8 40 Noroeste 98 Oeste 0 998.8 6.5 70
2019-02-02 02:00:00 8.1 59 Noroeste 98 Noroeste 0 996.7 5.3 74
2019-02-02 01:00:00 7.6 73 Oeste 101 Oeste 0.2 994.9 5.8 73
2019-02-02 00:00:00 7.9 66 Noroeste -- -- 0 992.3 5.1 77
2019-02-01 23:00:00 8.8 58 Oeste -- -- 0 991.4 7.2 72
2019-02-01 22:00:00 9.7 73 Noroeste 103 Oeste 0 989.1 7.3 65
2019-02-01 21:00:00 8.3 82 Noroeste 111 Oeste 0 987.2 7.1 79
2019-02-01 20:00:00 8.8 87 Oeste 109 Noroeste 0 984.2 6.4 79
2019-02-01 19:00:00 10 85 Oeste 107 Oeste 0 981.8 2.6 75
2019-02-01 18:00:00 8.8 85 Noroeste 112 Oeste 0.8 980.1 1.7 82
2019-02-01 17:00:00 8.4 69 Oeste 104 Oeste 0 977.8 0.4 78
2019-02-01 16:00:00 7.6 38 Oeste -- -- 0.2 979.2 2.1 73
2019-02-01 15:00:00 8.2 31 Oeste 76 Oeste 0 978.4 2 69
2019-02-01 14:00:00 8.4 -- -- -- -- 0 977.4 1.3 66
2019-02-01 13:00:00 9.5 50 Oeste 82 Oeste 0 977.1 0.1 62
2019-02-01 12:00:00 9.4 53 Oeste 73 Oeste 0 976.4 -0.7 60
2019-02-01 11:00:00 8.6 42 Oeste -- -- 0.2 976.1 -0.7 63
2019-02-01 10:00:00 6.8 8 Sur 33 Oeste 0 977 0 78
2019-02-01 09:00:00 6.2 21 Oeste -- -- 1.4 977.1 -0.1 78
2019-02-01 08:00:00 7.4 36 Oeste -- -- 0 976.8 0 64
2019-02-01 07:00:00 6.7 -- -- -- -- -- 977 -0.3 72
2019-02-01 06:00:00 8.2 -- -- -- -- 0.8 977.2 -1.7 60
2019-02-01 05:00:00 8.9 -- -- -- -- 0 976.8 -3.4 67
2019-02-01 04:00:00 9.8 48 Oeste 84 Oeste 0 977.3 -3.7 58
2019-02-01 03:00:00 10.3 49 Oeste 83 Sudoeste 0 978.9 -3.4 58
2019-02-01 02:00:00 10 46 Oeste 82 Oeste 0 980.2 -2.3 60
2019-02-01 01:00:00 10.4 46 Oeste 64 Oeste 0 981 -2.3 62
2019-02-01 00:00:00 10.6 45 Oeste -- -- 0 982.3 -0.5 63
2019-01-31 23:00:00 10.3 62 Oeste 91 Oeste 0.2 982.5 -0.2 70
2019-01-31 22:00:00 11.8 36 Oeste 90 Oeste 0 983.3 0.4 59
2019-01-31 21:00:00 12.6 64 Oeste 95 Oeste 0 982.8 0.5 54
2019-01-31 20:00:00 12.9 53 Oeste 89 Oeste 0 982.7 -0.7 63
2019-01-31 19:00:00 13 55 Oeste 92 Oeste 0 982.9 0 63
2019-01-31 18:00:00 12.9 68 Oeste 96 Oeste 0 982.3 -1.7 64
2019-01-31 17:00:00 12.4 42 Oeste 88 Oeste 0 983.4 -0.6 76
2019-01-31 16:00:00 12.4 40 Oeste 70 Oeste 0.2 982.9 -2.3 84
2019-01-31 15:00:00 12.4 31 Oeste 66 Oeste 5.8 984 -1.7 89
2019-01-31 14:00:00 13.1 44 Oeste 64 Oeste 0.2 984 -2 87
2019-01-31 13:00:00 14.6 31 Oeste 54 Oeste 0 985.2 -0.4 80
2019-01-31 12:00:00 14.5 23 Oeste 77 Oeste 0 985.7 0.1 82
2019-01-31 11:00:00 14.3 33 Oeste 63 Oeste 0.2 986 0.2 81
2019-01-31 10:00:00 15.3 43 Oeste 58 Oeste 0 985.6 -1.2 73
2019-01-31 09:00:00 15.2 45 Oeste 71 Oeste 0 985.6 -0.9 73
2019-01-31 08:00:00 14.6 46 Oeste 68 Oeste 0 985.8 -0.9 77
2019-01-31 07:00:00 13.3 14 Oeste 37 Oeste 1.2 986.8 -0.9 86
2019-01-31 06:00:00 13.9 38 Oeste 54 Oeste 0.2 986.5 -1.5 81
2019-01-31 05:00:00 13.6 32 Oeste 44 Oeste 1.4 986.7 -1.8 86
2019-01-31 04:00:00 13.2 23 Oeste 39 Oeste 1.8 987.7 -1.1 88
2019-01-31 03:00:00 13 23 Oeste 40 Oeste 1.6 988 -0.8 89
2019-01-31 02:00:00 13.3 33 Oeste 52 Oeste 0.2 988.5 -1.2 87
2019-01-31 01:00:00 13.4 32 Oeste 58 Oeste 0.4 988.8 -1.3 85
2019-01-31 00:00:00 13.3 38 Oeste 53 Sudoeste 0.8 988.8 -2 84
2019-01-30 23:00:00 12.7 18 Oeste 40 Oeste 0.8 989.7 -1.3 82
2019-01-30 22:00:00 12.6 35 Oeste 44 Oeste 0.8 990.1 -0.7 81
2019-01-30 21:00:00 13 33 Oeste 54 Oeste 0.2 990.8 -1.1 74
2019-01-30 20:00:00 12.8 33 Oeste 63 Oeste 0.4 991 -2.5 73
2019-01-30 19:00:00 12.9 37 Sudoeste 65 Oeste 0.6 990.8 -3.9 72
2019-01-30 18:00:00 12.1 24 Sudoeste 50 Sudoeste 0.6 991.9 -5.1 74
2019-01-30 17:00:00 12.2 24 Sudoeste 63 Oeste 0 993.5 -4.9 70
2019-01-30 16:00:00 12.3 29 Sudoeste 57 Sudoeste 0 994.7 -4.9 66
2019-01-30 15:00:00 12.3 13 Sudoeste 39 Oeste 0 997 -3.9 63
2019-01-30 14:00:00 12.3 21 Sudoeste 53 Oeste 0 998.4 -3.7 59
2019-01-30 13:00:00 12.1 33 Oeste 57 Oeste 0 999.6 -3.3 57
2019-01-30 12:00:00 11.5 34 Oeste 57 Oeste 0 1000.9 -2.2 54
2019-01-30 11:00:00 10.6 35 Oeste 59 Oeste 0 1002.1 -1.5 58
2019-01-30 10:00:00 9.4 36 Oeste 55 Oeste 0 1002.9 -1.4 60
2019-01-30 09:00:00 9.2 32 Oeste 53 Oeste 0 1003.1 -1.7 62
2019-01-30 08:00:00 8.8 30 Oeste 44 Oeste 0 1003.6 -1.6 63
2019-01-30 07:00:00 8.7 27 Oeste 55 Sudoeste 0 1004.3 -1.4 64
2019-01-30 06:00:00 8.8 33 Oeste 51 Oeste 0 1004.8 -1.3 64
2019-01-30 05:00:00 8.8 37 Oeste 53 Oeste 0 1005.2 -1.5 64
2019-01-30 04:00:00 8.8 38 Oeste 54 Oeste 0 1005.7 -1 65
2019-01-30 03:00:00 8.5 41 Oeste 69 Oeste 0 1006.1 -1 69
2019-01-30 02:00:00 8.5 33 Oeste 51 Oeste 0 1006.7 -0.6 68
2019-01-30 01:00:00 8.5 34 Oeste 67 Oeste 0.2 1006.7 -0.6 71
2019-01-30 00:00:00 8.9 30 Oeste 59 Oeste 0 1007.1 -0.7 70
2019-01-29 23:00:00 8.5 31 Oeste 45 Sudoeste 0.6 1007.3 0.4 72
2019-01-29 22:00:00 8.9 40 Oeste 60 Oeste 0 1007.3 1.5 69
2019-01-29 21:00:00 9.2 38 Oeste 73 Oeste 0 1007.8 3 73
2019-01-29 20:00:00 10 37 Oeste 72 Oeste 0 1006.9 2 69
2019-01-29 19:00:00 10.1 52 Oeste 88 Oeste 0.2 1005.8 1.6 68
2019-01-29 18:00:00 9.9 55 Oeste 84 Oeste 1 1004.8 1.7 74
2019-01-29 17:00:00 10.5 36 Oeste 83 Oeste 0.2 1004.9 1.7 75
2019-01-29 16:00:00 10.9 40 Oeste 85 Oeste 0 1004.2 2.9 73
2019-01-29 15:00:00 11.3 60 Oeste 89 Noroeste 0 1003.1 4.6 72
2019-01-29 14:00:00 11 49 Oeste 120 Oeste 0 1003.2 4.4 82
2019-01-29 13:00:00 12.1 73 Oeste 121 Oeste 0 1001.3 1.1 75
2019-01-29 12:00:00 13.2 64 Oeste 90 Oeste 0 998.5 -3 68
2019-01-29 11:00:00 13.3 59 Oeste 87 Oeste 0 998.8 -4.2 63
2019-01-29 10:00:00 12.8 54 Oeste 73 Oeste 0 1000.2 -3.7 64
2019-01-29 09:00:00 12.5 52 Oeste 73 Sudoeste 0 1001.5 -4.1 64
2019-01-29 08:00:00 12.2 52 Oeste 69 Oeste 0 1003 -3.7 67
2019-01-29 07:00:00 11.9 40 Oeste 63 Oeste 0 1003.9 -4.3 66
2019-01-29 06:00:00 11.9 37 Oeste 61 Oeste 0 1005.6 -3.9 66
2019-01-29 05:00:00 11.6 40 Oeste 52 Oeste 0 1006.7 -3.9 67
2019-01-29 04:00:00 11 28 Oeste 50 Oeste 0 1008.2 -3.4 68
2019-01-29 03:00:00 11 27 Oeste 39 Oeste 0 1009.5 -2.7 67
2019-01-29 02:00:00 10.7 23 Oeste 37 Oeste 0 1010.6 -2.2 67
2019-01-29 01:00:00 10.6 22 Oeste 31 Oeste 0 1011.6 -1.6 69
2019-01-29 00:00:00 10.6 14 Sudoeste 35 Oeste 0 1012.2 -1.1 68
2019-01-28 23:00:00 10.6 29 Oeste 37 Oeste 0 1012.8 -1.2 70
2019-01-28 22:00:00 10.5 28 Oeste 39 Oeste 0 1013.2 -0.9 72
2019-01-28 21:00:00 10.5 29 Oeste 38 Sudoeste 0 1013.3 -0.5 72
2019-01-28 20:00:00 10.4 23 Oeste 39 Oeste 0 1014 0.6 76
2019-01-28 19:00:00 10.5 31 Oeste 44 Oeste 0 1014.1 0.3 75
2019-01-28 18:00:00 11.1 34 Oeste 52 Oeste 0 1013.8 0.2 70
2019-01-28 17:00:00 11.7 31 Oeste 48 Oeste 0 1013.4 -0.4 75
2019-01-28 16:00:00 11.6 24 Oeste 55 Oeste 0 1013.8 0.2 69
2019-01-28 15:00:00 10.8 46 Oeste 67 Oeste 0 1013.6 0.3 75
2019-01-28 14:00:00 11.7 40 Oeste 59 Oeste 0 1013.8 1.3 78
2019-01-28 13:00:00 11.3 30 Oeste 54 Oeste 0 1013.6 -- 79
2019-01-28 12:00:00 11.6 34 Oeste 62 Noroeste 0.4 1013.3 -- 79
2019-01-28 11:00:00 11.7 36 Oeste -- -- -- 1012.5 -- 81
2019-01-28 10:00:00 -- -- -- -- -- -- -- -- --
2019-01-28 09:00:00 -- -- -- -- -- -- -- -- --
2019-01-28 08:00:00 -- -- -- -- -- -- -- -- --
2019-01-28 07:00:00 -- -- -- -- -- -- -- -- --
2019-01-28 06:00:00 -- -- -- -- -- -- -- -- --
2019-01-28 05:00:00 -- -- -- -- -- -- -- -- --
2019-01-28 04:00:00 -- -- -- -- -- -- -- -- --
2019-01-28 03:00:00 -- -- -- -- -- -- -- -- --
2019-01-28 02:00:00 -- -- -- -- -- -- -- -- --
2019-01-28 01:00:00 -- -- -- -- -- -- -- -- --
2019-01-28 00:00:00 -- -- -- -- -- -- -- -- --
2019-01-27 23:00:00 -- -- -- -- -- -- -- -- --
2019-01-27 22:00:00 -- -- -- -- -- -- -- -- --
2019-01-27 21:00:00 -- -- -- -- -- -- -- -- --
2019-01-27 20:00:00 -- -- -- -- -- -- -- -- --
2019-01-27 19:00:00 -- -- -- -- -- -- -- -- --
2019-01-27 18:00:00 -- -- -- -- -- -- -- -- --
2019-01-27 17:00:00 -- -- -- -- -- -- -- -- --
2019-01-27 16:00:00 10.1 40 Oeste 71 Oeste 0.2 1012.7 -0.7 73
2019-01-27 15:00:00 11.5 29 Oeste 63 Oeste 0 1013.4 0.6 62
2019-01-27 14:00:00 10.7 42 Noroeste 65 Noroeste 0 1013.7 1.9 69
2019-01-27 13:00:00 11 47 Oeste 69 Oeste 0 1013.4 2.7 68
2019-01-27 12:00:00 10.1 57 Noroeste 71 Oeste 0 1012.8 3.2 78
2019-01-27 11:00:00 9.8 47 Oeste 72 Oeste 0 1011.8 2.4 77
2019-01-27 10:00:00 9.9 40 Oeste 67 Oeste 0 1010.7 2.6 80
2019-01-27 09:00:00 9.4 47 Oeste 66 Oeste 1 1009.6 1.3 82
2019-01-27 08:00:00 8.8 37 Oeste 93 Oeste 1 1009.4 0.8 83
2019-01-27 07:00:00 9.7 51 Oeste 75 Oeste 0 1008.1 -0.2 72
2019-01-27 06:00:00 9.6 53 Oeste 78 Oeste 0.2 1008.3 0.4 74
2019-01-27 05:00:00 9.4 37 Oeste 71 Oeste 0.8 1008.6 1 83
2019-01-27 04:00:00 9.4 51 Oeste 83 Oeste 0.6 1008.3 1 81
2019-01-27 03:00:00 10 54 Oeste 74 Oeste 0 1007.9 1 79
2019-01-27 02:00:00 10.2 55 Oeste 84 Oeste 0 1007.6 -0.3 84
2019-01-27 01:00:00 10 54 Oeste 95 Oeste 0 1007.3 -1.2 86
2019-01-27 00:00:00 12.8 39 Oeste 60 Oeste 0 1006.9 -2.1 70
2019-01-26 23:00:00 11.4 19 Sudoeste 27 Oeste 0 1007.9 -1.5 74
2019-01-26 22:00:00 10.7 23 Oeste 33 Oeste 0 1008.5 -1.2 80
2019-01-26 21:00:00 10.7 14 Sudoeste 19 Sudoeste 0 1009 -0.6 81
2019-01-26 20:00:00 10.5 15 Sudoeste 25 Sudoeste 0 1009.4 -1 81
2019-01-26 19:00:00 10.8 14 Oeste 27 Oeste 0 1009.7 -- 82
2019-01-26 18:00:00 11.5 8 Oeste 26 Oeste 0 1009.6 -- 77
2019-01-26 17:00:00 12 13 Oeste -- -- -- 1010.4 -- 75
2019-01-26 16:00:00 -- -- -- -- -- -- -- -- --
2019-01-26 15:00:00 -- -- -- -- -- -- -- -- --
2019-01-26 14:00:00 -- -- -- -- -- -- -- -- --
2019-01-26 13:00:00 -- -- -- -- -- -- -- -- --
2019-01-26 12:00:00 -- -- -- -- -- -- -- -- --
2019-01-26 11:00:00 -- -- -- -- -- -- -- -- --
2019-01-26 10:00:00 -- -- -- -- -- -- -- -- --
2019-01-26 09:00:00 -- -- -- -- -- -- -- -- --
2019-01-26 08:00:00 -- -- -- -- -- -- -- -- --
2019-01-26 07:00:00 -- -- -- -- -- -- -- -- --
2019-01-26 06:00:00 -- -- -- -- -- -- -- -- --
2019-01-26 05:00:00 -- -- -- -- -- -- -- -- --
2019-01-26 04:00:00 -- -- -- -- -- -- -- -- --
2019-01-26 03:00:00 -- -- -- -- -- -- -- -- --
2019-01-26 02:00:00 -- -- -- -- -- -- -- -- --
2019-01-26 01:00:00 -- -- -- -- -- -- -- -- --
2019-01-26 00:00:00 -- -- -- -- -- -- -- -- --
2019-01-25 23:00:00 -- -- -- -- -- -- -- -- --
2019-01-25 22:00:00 -- -- -- -- -- -- -- -- --
2019-01-25 21:00:00 -- -- -- -- -- -- -- -- --
2019-01-25 20:00:00 -- -- -- -- -- -- -- -- --
2019-01-25 19:00:00 -- -- -- -- -- -- -- -- --
2019-01-25 18:00:00 -- -- -- -- -- -- -- -- --
2019-01-25 17:00:00 -- -- -- -- -- -- -- -- --
2019-01-25 16:00:00 -- -- -- -- -- -- -- -- --
2019-01-25 15:00:00 11.2 13 Noroeste 21 Oeste 0 1017.3 -0.8 85
2019-01-25 14:00:00 13.2 5 Oeste 11 Oeste 0 1017.5 -0.3 84
2019-01-25 13:00:00 11.8 5 Sudoeste 13 Sur 0 1017.7 0.3 87
2019-01-25 12:00:00 11.1 5 Noroeste 20 Oeste 0.2 1018.1 -- 89
2019-01-25 11:00:00 10.8 9 Sur 13 Sur 0 1017.8 -- 90
2019-01-25 10:00:00 10.4 9 Sur -- -- -- 1017.4 -- 89
2019-01-25 09:00:00 -- -- -- -- -- -- -- -- --
2019-01-25 08:00:00 -- -- -- -- -- -- -- -- --
2019-01-25 07:00:00 -- -- -- -- -- -- -- -- --
2019-01-25 06:00:00 -- -- -- -- -- -- -- -- --
2019-01-25 05:00:00 -- -- -- -- -- -- -- -- --
2019-01-25 04:00:00 -- -- -- -- -- -- -- -- --
2019-01-25 03:00:00 -- -- -- -- -- -- -- -- --
2019-01-25 02:00:00 -- -- -- -- -- -- -- -- --
2019-01-25 01:00:00 -- -- -- -- -- -- -- -- --
2019-01-25 00:00:00 -- -- -- -- -- -- -- -- --
2019-01-24 23:00:00 -- -- -- -- -- -- -- -- --
2019-01-24 22:00:00 -- -- -- -- -- -- -- -- --
2019-01-24 21:00:00 -- -- -- -- -- -- -- -- --
2019-01-24 20:00:00 11.6 24 Noroeste 34 Noroeste 0 1013.6 2.1 90
2019-01-24 19:00:00 11.7 28 Noroeste 44 Oeste 0.2 1012.9 1.4 92
2019-01-24 18:00:00 11.8 25 Oeste 45 Noroeste 0 1012.2 1 92
2019-01-24 17:00:00 12.1 32 Oeste 40 Noroeste 0 1011.5 -- 91
2019-01-24 16:00:00 12.3 18 Oeste 32 Oeste 0 1011.5 -- 92
2019-01-24 15:00:00 12.2 20 Oeste -- -- -- 1011.2 -- 92
2019-01-24 14:00:00 -- -- -- -- -- -- -- -- --
2019-01-24 13:00:00 -- -- -- -- -- -- -- -- --
2019-01-24 12:00:00 -- -- -- -- -- -- -- -- --
2019-01-24 11:00:00 -- -- -- -- -- -- -- -- --
2019-01-24 10:00:00 -- -- -- -- -- -- -- -- --
2019-01-24 09:00:00 -- -- -- -- -- -- -- -- --
2019-01-24 08:00:00 -- -- -- -- -- -- -- -- --
2019-01-24 07:00:00 -- -- -- -- -- -- -- -- --
2019-01-24 06:00:00 -- -- -- -- -- -- -- -- --
2019-01-24 05:00:00 -- -- -- -- -- -- -- -- --
2019-01-24 04:00:00 -- -- -- -- -- -- -- -- --
2019-01-24 03:00:00 -- -- -- -- -- -- -- -- --
2019-01-24 02:00:00 -- -- -- -- -- -- -- -- --
2019-01-24 01:00:00 12.1 34 Oeste 54 Oeste 0.2 1008.1 0.4 92
2019-01-24 00:00:00 12.1 31 Oeste 51 Oeste 0.2 1007.5 0 93